Terminal Aerodrome Forecast
Issued by NWS

Home | Current Version | Previous Version | Text Only | Print | Product List | Glossary Off
Versions: 1 2 3 4 5 6 7 8 9 10 11 12 13 14 15

000
FTUS43 KBIS 201900 AAA
TAFDIK
TAF AMD
KDIK 201936Z 2020/2118 27010KT P6SM FEW100
     FM210100 21007KT P6SM SCT250
     FM211000 19008KT P6SM SCT120 SCT200
     FM211500 20009KT P6SM SCT090 BKN110=

USA.gov is the U.S. government's official web portal to all federal, state and local government web resources and services.